<?xml version="1.0" encoding="UTF-8" standalone="no" ?>
<gpx xmlns="http://www.topografix.com/GPX/1/1" xmlns:xsi="http://www.w3.org/2001/XMLSchema-instance" xsi:schemaLocation="http://www.topografix.com/GPX/1/1 http://www.topografix.com/GPX/1/1/gpx.xsd" version="1.1" creator="VisuGPX - https://www.visugpx.com">
  <metadata>
    <name>Circuit De Ventron lac de kruth</name>
  </metadata>
  <trk>
    <name><![CDATA[Circuit De Ventron]]></name>
    <trkseg>
      <trkpt lat="47.94673" lon="6.95709">
        <ele>573</ele>
        <time>2016-02-09T11:09:53+01:00</time>
      </trkpt>
      <trkpt lat="47.94635" lon="6.95331">
        <ele>553</ele>
        <time>2016-02-09T11:09:58+01:00</time>
      </trkpt>
      <trkpt lat="47.94703" lon="6.9529">
        <ele>555</ele>
        <time>2016-02-09T11:10:03+01:00</time>
      </trkpt>
      <trkpt lat="47.94856" lon="6.95148">
        <ele>563</ele>
        <time>2016-02-09T11:10:08+01:00</time>
      </trkpt>
      <trkpt lat="47.94992" lon="6.95059">
        <ele>564</ele>
        <time>2016-02-09T11:10:13+01:00</time>
      </trkpt>
      <trkpt lat="47.95147" lon="6.94997">
        <ele>568</ele>
        <time>2016-02-09T11:10:18+01:00</time>
      </trkpt>
      <trkpt lat="47.95258" lon="6.95033">
        <ele>561</ele>
        <time>2016-02-09T11:10:23+01:00</time>
      </trkpt>
      <trkpt lat="47.95391" lon="6.95101">
        <ele>567</ele>
        <time>2016-02-09T11:10:28+01:00</time>
      </trkpt>
      <trkpt lat="47.95528" lon="6.952">
        <ele>572</ele>
        <time>2016-02-09T11:10:33+01:00</time>
      </trkpt>
      <trkpt lat="47.95607" lon="6.95315">
        <ele>562</ele>
        <time>2016-02-09T11:10:38+01:00</time>
      </trkpt>
      <trkpt lat="47.95697" lon="6.95393">
        <ele>560</ele>
        <time>2016-02-09T11:10:43+01:00</time>
      </trkpt>
      <trkpt lat="47.95754" lon="6.9544">
        <ele>563</ele>
        <time>2016-02-09T11:10:48+01:00</time>
      </trkpt>
      <trkpt lat="47.95769" lon="6.95513">
        <ele>561</ele>
        <time>2016-02-09T11:10:53+01:00</time>
      </trkpt>
      <trkpt lat="47.95765" lon="6.95545">
        <ele>560</ele>
        <time>2016-02-09T11:10:58+01:00</time>
      </trkpt>
      <trkpt lat="47.95769" lon="6.95618">
        <ele>555</ele>
        <time>2016-02-09T11:11:03+01:00</time>
      </trkpt>
      <trkpt lat="47.95815" lon="6.95659">
        <ele>556</ele>
        <time>2016-02-09T11:11:08+01:00</time>
      </trkpt>
      <trkpt lat="47.95848" lon="6.95654">
        <ele>560</ele>
        <time>2016-02-09T11:11:13+01:00</time>
      </trkpt>
      <trkpt lat="47.95923" lon="6.95628">
        <ele>566</ele>
        <time>2016-02-09T11:11:18+01:00</time>
      </trkpt>
      <trkpt lat="47.96006" lon="6.95644">
        <ele>560</ele>
        <time>2016-02-09T11:11:23+01:00</time>
      </trkpt>
      <trkpt lat="47.96056" lon="6.95644">
        <ele>556</ele>
        <time>2016-02-09T11:11:28+01:00</time>
      </trkpt>
      <trkpt lat="47.96131" lon="6.95612">
        <ele>558</ele>
        <time>2016-02-09T11:11:33+01:00</time>
      </trkpt>
      <trkpt lat="47.96203" lon="6.95565">
        <ele>560</ele>
        <time>2016-02-09T11:11:38+01:00</time>
      </trkpt>
      <trkpt lat="47.9625" lon="6.95545">
        <ele>550</ele>
        <time>2016-02-09T11:11:43+01:00</time>
      </trkpt>
      <trkpt lat="47.96333" lon="6.95571">
        <ele>562</ele>
        <time>2016-02-09T11:11:48+01:00</time>
      </trkpt>
      <trkpt lat="47.96401" lon="6.95586">
        <ele>568</ele>
        <time>2016-02-09T11:11:53+01:00</time>
      </trkpt>
      <trkpt lat="47.96469" lon="6.95659">
        <ele>559</ele>
        <time>2016-02-09T11:11:58+01:00</time>
      </trkpt>
      <trkpt lat="47.96444" lon="6.95581">
        <ele>580</ele>
        <time>2016-02-09T11:12:03+01:00</time>
      </trkpt>
      <trkpt lat="47.96696" lon="6.95597">
        <ele>601</ele>
        <time>2016-02-09T11:12:08+01:00</time>
      </trkpt>
      <trkpt lat="47.96573" lon="6.95545">
        <ele>617</ele>
        <time>2016-02-09T11:12:13+01:00</time>
      </trkpt>
      <trkpt lat="47.96577" lon="6.95519">
        <ele>628</ele>
        <time>2016-02-09T11:12:18+01:00</time>
      </trkpt>
      <trkpt lat="47.96566" lon="6.95503">
        <ele>633</ele>
        <time>2016-02-09T11:12:23+01:00</time>
      </trkpt>
      <trkpt lat="47.96584" lon="6.95487">
        <ele>641</ele>
        <time>2016-02-09T11:12:28+01:00</time>
      </trkpt>
      <trkpt lat="47.96555" lon="6.95461">
        <ele>649</ele>
        <time>2016-02-09T11:12:33+01:00</time>
      </trkpt>
      <trkpt lat="47.96588" lon="6.9544">
        <ele>661</ele>
        <time>2016-02-09T11:12:38+01:00</time>
      </trkpt>
      <trkpt lat="47.96566" lon="6.95419">
        <ele>667</ele>
        <time>2016-02-09T11:12:43+01:00</time>
      </trkpt>
      <trkpt lat="47.96613" lon="6.95393">
        <ele>680</ele>
        <time>2016-02-09T11:12:48+01:00</time>
      </trkpt>
      <trkpt lat="47.9657" lon="6.95372">
        <ele>685</ele>
        <time>2016-02-09T11:12:53+01:00</time>
      </trkpt>
      <trkpt lat="47.96631" lon="6.95351">
        <ele>695</ele>
        <time>2016-02-09T11:12:58+01:00</time>
      </trkpt>
      <trkpt lat="47.96512" lon="6.95221">
        <ele>730</ele>
        <time>2016-02-09T11:13:03+01:00</time>
      </trkpt>
      <trkpt lat="47.96638" lon="6.94955">
        <ele>834</ele>
        <time>2016-02-09T11:13:08+01:00</time>
      </trkpt>
      <trkpt lat="47.96724" lon="6.94798">
        <ele>863</ele>
        <time>2016-02-09T11:13:13+01:00</time>
      </trkpt>
      <trkpt lat="47.968" lon="6.94595">
        <ele>875</ele>
        <time>2016-02-09T11:13:18+01:00</time>
      </trkpt>
      <trkpt lat="47.96775" lon="6.94506">
        <ele>882</ele>
        <time>2016-02-09T11:13:23+01:00</time>
      </trkpt>
      <trkpt lat="47.96832" lon="6.94381">
        <ele>892</ele>
        <time>2016-02-09T11:13:28+01:00</time>
      </trkpt>
      <trkpt lat="47.96936" lon="6.94328">
        <ele>903</ele>
        <time>2016-02-09T11:13:33+01:00</time>
      </trkpt>
      <trkpt lat="47.96976" lon="6.94193">
        <ele>915</ele>
        <time>2016-02-09T11:13:38+01:00</time>
      </trkpt>
      <trkpt lat="47.96965" lon="6.93973">
        <ele>928</ele>
        <time>2016-02-09T11:13:43+01:00</time>
      </trkpt>
      <trkpt lat="47.96882" lon="6.93937">
        <ele>940</ele>
        <time>2016-02-09T11:13:48+01:00</time>
      </trkpt>
      <trkpt lat="47.96753" lon="6.93853">
        <ele>956</ele>
        <time>2016-02-09T11:13:53+01:00</time>
      </trkpt>
      <trkpt lat="47.96685" lon="6.9377">
        <ele>952</ele>
        <time>2016-02-09T11:13:58+01:00</time>
      </trkpt>
      <trkpt lat="47.96753" lon="6.93691">
        <ele>960</ele>
        <time>2016-02-09T11:14:03+01:00</time>
      </trkpt>
      <trkpt lat="47.96764" lon="6.93577">
        <ele>974</ele>
        <time>2016-02-09T11:14:08+01:00</time>
      </trkpt>
      <trkpt lat="47.96832" lon="6.93629">
        <ele>974</ele>
        <time>2016-02-09T11:14:13+01:00</time>
      </trkpt>
      <trkpt lat="47.96918" lon="6.93592">
        <ele>971</ele>
        <time>2016-02-09T11:14:18+01:00</time>
      </trkpt>
      <trkpt lat="47.96918" lon="6.93493">
        <ele>988</ele>
        <time>2016-02-09T11:14:23+01:00</time>
      </trkpt>
      <trkpt lat="47.9699" lon="6.93384">
        <ele>1004</ele>
        <time>2016-02-09T11:14:28+01:00</time>
      </trkpt>
      <trkpt lat="47.97055" lon="6.93394">
        <ele>1012</ele>
        <time>2016-02-09T11:14:33+01:00</time>
      </trkpt>
      <trkpt lat="47.97105" lon="6.93441">
        <ele>1007</ele>
        <time>2016-02-09T11:14:38+01:00</time>
      </trkpt>
      <trkpt lat="47.97152" lon="6.93451">
        <ele>1006</ele>
        <time>2016-02-09T11:14:43+01:00</time>
      </trkpt>
      <trkpt lat="47.9717" lon="6.93347">
        <ele>1023</ele>
        <time>2016-02-09T11:14:48+01:00</time>
      </trkpt>
      <trkpt lat="47.97102" lon="6.93211">
        <ele>1044</ele>
        <time>2016-02-09T11:14:53+01:00</time>
      </trkpt>
      <trkpt lat="47.97023" lon="6.93159">
        <ele>1062</ele>
        <time>2016-02-09T11:14:58+01:00</time>
      </trkpt>
      <trkpt lat="47.96886" lon="6.93227">
        <ele>1052</ele>
        <time>2016-02-09T11:15:03+01:00</time>
      </trkpt>
      <trkpt lat="47.96696" lon="6.93164">
        <ele>1082</ele>
        <time>2016-02-09T11:15:08+01:00</time>
      </trkpt>
      <trkpt lat="47.96599" lon="6.93159">
        <ele>1080</ele>
        <time>2016-02-09T11:15:13+01:00</time>
      </trkpt>
      <trkpt lat="47.96645" lon="6.9306">
        <ele>1102</ele>
        <time>2016-02-09T11:15:18+01:00</time>
      </trkpt>
      <trkpt lat="47.96559" lon="6.92955">
        <ele>1121</ele>
        <time>2016-02-09T11:15:23+01:00</time>
      </trkpt>
      <trkpt lat="47.96451" lon="6.92856">
        <ele>1130</ele>
        <time>2016-02-09T11:15:28+01:00</time>
      </trkpt>
      <trkpt lat="47.96193" lon="6.92799">
        <ele>1162</ele>
        <time>2016-02-09T11:15:33+01:00</time>
      </trkpt>
      <trkpt lat="47.96106" lon="6.92611">
        <ele>1177</ele>
        <time>2016-02-09T11:15:38+01:00</time>
      </trkpt>
      <trkpt lat="47.95991" lon="6.92501">
        <ele>1199</ele>
        <time>2016-02-09T11:15:43+01:00</time>
      </trkpt>
      <trkpt lat="47.9579" lon="6.92627">
        <ele>1184</ele>
        <time>2016-02-09T11:15:48+01:00</time>
      </trkpt>
      <trkpt lat="47.95664" lon="6.92533">
        <ele>1169</ele>
        <time>2016-02-09T11:15:53+01:00</time>
      </trkpt>
      <trkpt lat="47.95459" lon="6.92334">
        <ele>1144</ele>
        <time>2016-02-09T11:15:58+01:00</time>
      </trkpt>
      <trkpt lat="47.95219" lon="6.9236">
        <ele>1147</ele>
        <time>2016-02-09T11:16:03+01:00</time>
      </trkpt>
      <trkpt lat="47.94964" lon="6.92736">
        <ele>1093</ele>
        <time>2016-02-09T11:16:08+01:00</time>
      </trkpt>
      <trkpt lat="47.94971" lon="6.92929">
        <ele>1067</ele>
        <time>2016-02-09T11:16:13+01:00</time>
      </trkpt>
      <trkpt lat="47.94856" lon="6.93519">
        <ele>1008</ele>
        <time>2016-02-09T11:16:18+01:00</time>
      </trkpt>
      <trkpt lat="47.94895" lon="6.93728">
        <ele>973</ele>
        <time>2016-02-09T11:16:23+01:00</time>
      </trkpt>
      <trkpt lat="47.94802" lon="6.94198">
        <ele>865</ele>
        <time>2016-02-09T11:16:28+01:00</time>
      </trkpt>
      <trkpt lat="47.94698" lon="6.94835">
        <ele>700</ele>
        <time>2016-02-09T11:16:33+01:00</time>
      </trkpt>
      <trkpt lat="47.94723" lon="6.94986">
        <ele>666</ele>
        <time>2016-02-09T11:16:38+01:00</time>
      </trkpt>
      <trkpt lat="47.94651" lon="6.95122">
        <ele>631</ele>
        <time>2016-02-09T11:16:43+01:00</time>
      </trkpt>
      <trkpt lat="47.9454" lon="6.95137">
        <ele>622</ele>
        <time>2016-02-09T11:16:48+01:00</time>
      </trkpt>
      <trkpt lat="47.94511" lon="6.94954">
        <ele>622</ele>
        <time>2016-02-09T11:16:53+01:00</time>
      </trkpt>
      <trkpt lat="47.94474" lon="6.951">
        <ele>610</ele>
        <time>2016-02-09T11:16:58+01:00</time>
      </trkpt>
      <trkpt lat="47.94438" lon="6.95214">
        <ele>582</ele>
        <time>2016-02-09T11:17:03+01:00</time>
      </trkpt>
      <trkpt lat="47.94554" lon="6.95284">
        <ele>573</ele>
        <time>2016-02-09T11:17:08+01:00</time>
      </trkpt>
      <trkpt lat="47.94736" lon="6.95246">
        <ele>561</ele>
        <time>2016-02-09T11:17:13+01:00</time>
      </trkpt>
      <trkpt lat="47.94629" lon="6.95334">
        <ele>552</ele>
        <time>2016-02-09T11:17:18+01:00</time>
      </trkpt>
      <trkpt lat="47.94671" lon="6.95723">
        <ele>580</ele>
        <time>2016-02-09T11:17:23+01:00</time>
      </trkpt>
    </trkseg>
  </trk>
</gpx>